Time;durP1;ratioP1;P1;durP2;ratioP2;P2;SDS_P1;SDS_P2;PMS_P1;PMS_P2;Temp;Humidity;BMP_temperature;BMP_pressure;BME280_temperature;BME280_humidity;BME280_pressure;Samples;Min_cycle;Max_cycle;Signal;HPM_P1;HPM_P2
2024/01/22 00:02:28;;;;;;;15.95;10.10;;;;;;;2.36;60.96;103003.09;5021730;28;20456;-82
2024/01/22 00:04:54;;;;;;;13.73;9.73;;;;;;;2.26;61.42;103012.88;5024902;28;20715;-81
2024/01/22 00:07:21;;;;;;;16.38;9.65;;;;;;;2.27;60.42;103006.72;5010764;28;20093;-81
2024/01/22 00:09:53;;;;;;;15.32;9.10;;;;;;;2.15;60.94;102993.81;5019874;28;20087;-82
2024/01/22 00:12:22;;;;;;;11.45;9.00;;;;;;;2.09;60.61;102992.16;5008688;28;20141;-82
2024/01/22 00:14:49;;;;;;;13.45;9.82;;;;;;;1.99;60.82;102966.09;5007446;28;20048;-82
2024/01/22 00:17:22;;;;;;;15.48;8.73;;;;;;;2.04;59.64;102985.25;5017687;28;20047;-82
2024/01/22 00:19:55;;;;;;;14.15;9.73;;;;;;;2.11;59.95;102992.13;5040050;28;20425;-82
2024/01/22 00:22:23;;;;;;;15.02;10.07;;;;;;;1.91;59.96;102950.50;5009479;28;20124;-81
2024/01/22 00:24:50;;;;;;;15.65;9.70;;;;;;;2.13;61.31;102980.72;5020897;28;20478;-82
2024/01/22 00:27:17;;;;;;;12.43;9.20;;;;;;;2.07;61.82;102964.25;4991765;28;20044;-82
2024/01/22 00:29:46;;;;;;;10.75;9.20;;;;;;;2.01;62.15;102948.63;5011103;28;20303;-82
2024/01/22 00:32:12;;;;;;;14.93;10.45;;;;;;;1.97;62.29;102952.19;5010984;28;20378;-81
2024/01/22 00:34:39;;;;;;;14.23;9.63;;;;;;;1.80;62.21;102929.72;5013949;28;20048;-81
2024/01/22 00:37:08;;;;;;;13.80;9.50;;;;;;;1.87;62.91;102944.47;5010429;28;20079;-83
2024/01/22 00:39:43;;;;;;;14.57;9.85;;;;;;;1.96;61.73;102945.19;5012124;28;20044;-81
2024/01/22 00:42:12;;;;;;;13.32;9.10;;;;;;;1.89;62.23;102950.56;5011611;28;20151;-81
2024/01/22 00:44:39;;;;;;;12.43;10.18;;;;;;;1.65;61.89;102906.38;5027995;28;20545;-82
2024/01/22 00:47:06;;;;;;;15.40;10.23;;;;;;;1.91;62.24;102954.00;5029397;28;20040;-81
2024/01/22 00:49:32;;;;;;;14.50;8.63;;;;;;;1.98;61.69;102946.06;5008895;28;20597;-83
2024/01/22 00:51:59;;;;;;;15.05;10.27;;;;;;;1.88;61.33;102927.84;5012097;28;20052;-82
2024/01/22 00:54:25;;;;;;;14.23;9.38;;;;;;;1.51;60.69;102864.69;5008123;28;20477;-82
2024/01/22 00:56:53;;;;;;;16.17;9.77;;;;;;;1.97;60.00;102936.47;5009368;28;20421;-81
2024/01/22 00:59:26;;;;;;;14.70;9.23;;;;;;;1.44;58.71;102853.44;5027718;28;20473;-82
2024/01/22 01:01:53;;;;;;;14.20;9.10;;;;;;;1.93;59.57;102941.75;5024850;28;20309;-82
2024/01/22 01:04:21;;;;;;;11.80;8.48;;;;;;;1.64;59.15;102895.03;4981539;28;20044;-83
2024/01/22 01:06:48;;;;;;;13.30;8.93;;;;;;;1.64;59.13;102888.94;5010385;28;20608;-81
2024/01/22 01:09:14;;;;;;;15.87;8.27;;;;;;;1.89;58.26;102934.84;5008932;28;20162;-82
2024/01/22 01:11:48;;;;;;;10.18;8.20;;;;;;;1.89;59.60;102929.59;5023076;28;20190;-81
2024/01/22 01:14:18;;;;;;;12.20;8.20;;;;;;;1.87;60.42;102936.59;4992977;28;20437;-80
2024/01/22 01:16:45;;;;;;;10.77;8.10;;;;;;;1.63;60.97;102889.84;5011734;28;20458;-82
2024/01/22 01:19:11;;;;;;;10.73;8.02;;;;;;;1.98;59.09;102951.28;4993713;28;20468;-82
2024/01/22 01:21:43;;;;;;;12.48;8.32;;;;;;;1.92;60.63;102955.75;5008690;28;20051;-83
2024/01/22 01:24:13;;;;;;;10.57;8.10;;;;;;;1.79;61.17;102950.69;5009409;28;20058;-82
2024/01/22 01:26:41;;;;;;;14.15;8.73;;;;;;;1.07;61.30;102829.56;4995041;28;20318;-81
2024/01/22 01:29:08;;;;;;;16.90;7.50;;;;;;;1.17;61.08;102854.72;5009251;28;20117;-80
2024/01/22 01:31:35;;;;;;;16.90;9.27;;;;;;;1.52;61.41;102913.53;4993525;28;20490;-82
2024/01/22 01:34:07;;;;;;;9.93;7.40;;;;;;;1.75;60.01;102933.28;5021389;28;20052;-82
2024/01/22 01:36:36;;;;;;;10.52;7.88;;;;;;;1.57;61.10;102918.72;5009116;28;20488;-83
2024/01/22 01:39:03;;;;;;;11.45;8.75;;;;;;;1.45;61.62;102907.53;4993739;28;20509;-83
2024/01/22 01:41:30;;;;;;;14.00;8.40;;;;;;;1.46;61.96;102909.28;4994057;28;20052;-82
2024/01/22 01:43:57;;;;;;;12.45;8.60;;;;;;;0.84;62.26;102799.31;5041440;28;20094;-83
2024/01/22 01:46:29;;;;;;;12.20;8.00;;;;;;;1.62;62.39;102933.47;5002904;28;20044;-83
2024/01/22 01:48:58;;;;;;;12.93;8.15;;;;;;;1.62;62.49;102936.09;5009901;28;20478;-81
2024/01/22 01:51:25;;;;;;;13.50;8.88;;;;;;;1.55;61.78;102920.47;5012664;28;20050;-81
2024/01/22 01:53:58;;;;;;;15.03;9.23;;;;;;;1.56;61.89;102923.09;4988701;28;20052;-83
2024/01/22 01:56:29;;;;;;;14.65;8.38;;;;;;;1.68;61.70;102946.47;4992611;28;20052;-83
2024/01/22 01:58:56;;;;;;;10.68;8.38;;;;;;;1.27;61.53;102882.47;4989736;28;20049;-82
2024/01/22 02:01:23;;;;;;;18.27;8.82;;;;;;;1.57;60.80;102923.94;4972795;28;20044;-82
2024/01/22 02:03:53;;;;;;;14.13;7.82;;;;;;;1.56;59.68;102922.22;5023296;28;20052;-83
2024/01/22 02:06:30;;;;;;;11.80;7.88;;;;;;;1.45;59.32;102902.28;5020778;28;20048;-82
2024/01/22 02:08:56;;;;;;;13.67;7.23;;;;;;;1.55;58.66;102917.88;5076822;28;21657;-84
2024/01/22 02:11:23;;;;;;;12.25;7.07;;;;;;;1.63;58.84;102921.25;5074592;28;20776;-84
2024/01/22 02:13:50;;;;;;;12.32;7.30;;;;;;;1.66;58.63;102919.44;5062942;28;20048;-82
2024/01/22 02:16:17;;;;;;;11.70;7.90;;;;;;;1.67;59.63;102922.94;5082558;28;20044;-81
2024/01/22 02:18:44;;;;;;;8.97;7.60;;;;;;;1.15;59.80;102830.31;5065580;28;20075;-81
2024/01/22 02:21:12;;;;;;;11.67;7.67;;;;;;;1.67;60.75;102917.69;5064651;28;20563;-81
2024/01/22 02:23:39;;;;;;;13.95;7.97;;;;;;;1.62;60.79;102924.75;5051423;28;20045;-82
2024/01/22 02:26:11;;;;;;;13.40;7.80;;;;;;;1.57;61.17;102919.56;5064613;28;20082;-82
2024/01/22 02:28:38;;;;;;;14.38;8.30;;;;;;;1.59;60.94;102925.66;5065337;28;20127;-82
2024/01/22 02:31:07;;;;;;;13.18;7.53;;;;;;;1.45;59.90;102889.19;5065984;28;20048;-82
2024/01/22 02:33:34;;;;;;;14.50;9.10;;;;;;;1.32;61.04;102858.00;5083331;28;20040;-82
2024/01/22 02:36:06;;;;;;;12.02;7.78;;;;;;;1.49;60.33;102901.38;5080822;28;20123;-82
2024/01/22 02:38:33;;;;;;;15.93;8.45;;;;;;;1.30;61.01;102865.88;5063981;28;20055;-81
2024/01/22 02:40:59;;;;;;;16.07;7.93;;;;;;;1.37;61.38;102877.97;5047671;28;20075;-84
2024/01/22 02:43:26;;;;;;;18.43;9.43;;;;;;;1.48;62.09;102907.50;5061902;28;20758;-82
2024/01/22 02:45:53;;;;;;;14.53;8.27;;;;;;;1.44;61.97;102904.94;5063175;28;20048;-84
2024/01/22 02:48:20;;;;;;;19.50;10.57;;;;;;;1.03;60.98;102828.72;5063111;28;20048;-83
2024/01/22 02:50:47;;;;;;;10.90;8.17;;;;;;;0.96;61.93;102813.13;5058913;28;20498;-81
2024/01/22 02:53:14;;;;;;;15.60;8.30;;;;;;;1.52;61.81;102912.69;5058185;28;20079;-83
2024/01/22 02:55:44;;;;;;;13.20;8.40;;;;;;;1.48;62.37;102911.84;5061582;28;20577;-82
2024/01/22 02:58:12;;;;;;;17.67;8.50;;;;;;;1.39;62.24;102898.91;5066689;28;20394;-82
2024/01/22 03:00:42;;;;;;;12.07;8.13;;;;;;;1.21;61.13;102863.38;5082951;28;20506;-83
2024/01/22 03:03:09;;;;;;;11.17;8.33;;;;;;;1.30;62.31;102881.56;5064220;28;20052;-83
2024/01/22 03:05:36;;;;;;;15.17;8.67;;;;;;;1.44;61.46;102899.72;5065997;28;20075;-82
2024/01/22 03:08:09;;;;;;;11.13;7.60;;;;;;;1.42;60.71;102907.56;5067000;28;20052;-83
2024/01/22 03:10:45;;;;;;;11.25;7.68;;;;;;;0.34;60.12;102716.31;5064911;28;20044;-83
2024/01/22 03:13:12;;;;;;;12.33;7.83;;;;;;;1.25;61.18;102873.78;5065794;28;20040;-81
2024/01/22 03:15:43;;;;;;;12.63;7.83;;;;;;;1.39;60.38;102902.38;5063954;28;20048;-83
2024/01/22 03:18:09;;;;;;;11.30;7.87;;;;;;;1.32;60.37;102885.03;5065869;28;20564;-82
2024/01/22 03:20:37;;;;;;;12.53;8.13;;;;;;;1.26;61.37;102858.94;5066045;28;20540;-83
2024/01/22 03:23:04;;;;;;;14.33;8.77;;;;;;;1.25;60.86;102858.06;5053281;28;20494;-81
2024/01/22 03:25:31;;;;;;;10.97;7.53;;;;;;;1.39;60.53;102877.97;5059792;28;20046;-81
2024/01/22 03:27:59;;;;;;;8.73;7.37;;;;;;;1.27;61.44;102871.16;5063741;28;20058;-82
2024/01/22 03:30:26;;;;;;;11.03;7.03;;;;;;;1.24;59.72;102879.06;5065989;28;20502;-83
2024/01/22 03:32:53;;;;;;;12.07;7.10;;;;;;;1.08;58.68;102873.13;5062630;28;20084;-82
2024/01/22 03:35:20;;;;;;;11.73;7.37;;;;;;;0.85;58.78;102836.84;5065676;28;20044;-84
2024/01/22 03:37:47;;;;;;;9.70;7.13;;;;;;;1.09;60.26;102876.63;5064564;28;20049;-82
2024/01/22 03:40:16;;;;;;;11.20;7.70;;;;;;;1.20;58.54;102882.59;5062688;28;20048;-84
2024/01/22 03:42:43;;;;;;;9.13;6.87;;;;;;;1.40;58.68;102888.41;5064277;28;20048;-81
2024/01/22 03:45:14;;;;;;;13.30;6.97;;;;;;;1.62;58.21;102864.53;5064757;28;20052;-83
2024/01/22 03:47:45;;;;;;;12.17;7.60;;;;;;;1.60;56.57;102835.78;5050138;28;20053;-83
2024/01/22 03:50:12;;;;;;;9.30;6.90;;;;;;;1.95;56.66;102859.66;5047128;28;20045;-82
2024/01/22 03:52:39;;;;;;;13.03;6.93;;;;;;;1.97;55.96;102852.63;5065109;28;20729;-81
2024/01/22 03:55:07;;;;;;;10.07;7.13;;;;;;;1.75;57.65;102863.47;5064718;28;20101;-81
2024/01/22 03:57:34;;;;;;;11.20;7.47;;;;;;;1.60;58.24;102858.44;5077615;28;20044;-81
2024/01/22 04:00:01;;;;;;;9.67;7.43;;;;;;;1.57;58.76;102868.97;5064679;28;20052;-81
2024/01/22 04:02:32;;;;;;;14.73;6.63;;;;;;;0.98;58.23;102793.91;5081738;28;20075;-83
2024/01/22 04:04:59;;;;;;;9.03;6.47;;;;;;;1.34;58.45;102857.09;5065224;28;20726;-81
2024/01/22 04:07:26;;;;;;;8.15;6.22;;;;;;;1.44;57.86;102886.63;5083734;28;20058;-81
2024/01/22 04:09:53;;;;;;;12.27;6.80;;;;;;;1.36;57.81;102871.03;5064755;28;20051;-82
2024/01/22 04:12:28;;;;;;;10.27;6.67;;;;;;;1.01;58.87;102799.09;5063636;28;20058;-82
2024/01/22 04:15:05;;;;;;;10.83;7.47;;;;;;;1.25;58.39;102854.59;5064458;28;20051;-81
2024/01/22 04:17:33;;;;;;;11.33;7.10;;;;;;;1.22;58.97;102857.25;5063135;28;20055;-83
2024/01/22 04:20:00;;;;;;;10.60;6.23;;;;;;;1.25;58.23;102867.69;5063202;28;20131;-81
2024/01/22 04:22:30;;;;;;;8.47;6.47;;;;;;;1.13;57.10;102854.78;5051345;28;20048;-83
2024/01/22 04:24:56;;;;;;;12.87;6.60;;;;;;;1.22;57.01;102872.97;5062704;28;20044;-81
2024/01/22 04:27:23;;;;;;;8.00;6.07;;;;;;;1.24;56.81;102879.06;5062589;28;20048;-82
2024/01/22 04:29:51;;;;;;;11.70;6.30;;;;;;;0.97;57.17;102820.97;5062753;28;20126;-80
2024/01/22 04:32:18;;;;;;;9.10;6.17;;;;;;;1.42;56.53;102889.25;5060094;28;20044;-82
2024/01/22 04:34:46;;;;;;;12.65;6.30;;;;;;;1.31;57.63;102866.72;5064277;28;20048;-82
2024/01/22 04:37:14;;;;;;;9.60;6.40;;;;;;;1.24;57.65;102876.44;5061060;28;20054;-81
2024/01/22 04:39:45;;;;;;;10.03;6.23;;;;;;;0.86;58.19;102820.25;5062567;28;20521;-83
2024/01/22 04:42:20;;;;;;;9.57;6.53;;;;;;;1.31;56.88;102883.31;5061419;28;20055;-83
2024/01/22 04:44:53;;;;;;;12.38;5.82;;;;;;;1.36;57.20;102889.34;5057690;28;20493;-83
2024/01/22 04:47:23;;;;;;;9.00;6.50;;;;;;;1.21;58.00;102868.59;5063679;28;20298;-82
2024/01/22 04:49:51;;;;;;;11.00;6.07;;;;;;;1.31;57.96;102885.94;5054419;28;20622;-82
2024/01/22 04:52:17;;;;;;;10.17;6.53;;;;;;;1.23;58.29;102885.16;5060946;28;20535;-83
2024/01/22 04:54:44;;;;;;;11.03;6.50;;;;;;;0.86;58.69;102828.09;5064115;28;20079;-82
2024/01/22 04:57:12;;;;;;;10.90;6.50;;;;;;;1.34;58.20;102909.44;5078332;28;20594;-82
2024/01/22 04:59:46;;;;;;;8.80;6.20;;;;;;;1.16;58.75;102899.19;5077528;28;20478;-82
2024/01/22 05:02:22;;;;;;;11.33;6.37;;;;;;;0.96;58.39;102855.84;5059291;28;20597;-83
2024/01/22 05:04:50;;;;;;;15.23;6.73;;;;;;;1.26;58.55;102913.88;5080903;28;20602;-83
2024/01/22 05:07:21;;;;;;;11.23;6.60;;;;;;;1.25;59.05;102915.66;5061477;28;20506;-83
2024/01/22 05:09:58;;;;;;;13.83;6.87;;;;;;;0.83;59.51;102844.69;5058924;28;20052;-83
2024/01/22 05:12:25;;;;;;;10.43;6.90;;;;;;;0.93;58.24;102849.81;5063437;28;20192;-81
2024/01/22 05:14:52;;;;;;;12.80;7.10;;;;;;;1.21;57.06;102897.38;5079904;28;20406;-82
2024/01/22 05:17:19;;;;;;;13.70;6.73;;;;;;;1.41;57.05;102916.31;5064727;28;20047;-82
2024/01/22 05:19:49;;;;;;;12.70;6.73;;;;;;;0.99;57.82;102834.88;5064788;28;20779;-81
2024/01/22 05:22:16;;;;;;;17.90;7.60;;;;;;;1.05;58.01;102854.88;5064905;28;20720;-81
2024/01/22 05:24:44;;;;;;;12.50;7.03;;;;;;;1.44;58.35;102904.94;5067674;28;20413;-82
2024/01/22 05:27:10;;;;;;;10.30;7.43;;;;;;;1.46;57.24;102905.78;5063660;28;20059;-83
2024/01/22 05:29:38;;;;;;;13.50;7.33;;;;;;;1.48;56.93;102902.25;5068172;28;20055;-83
2024/01/22 05:32:06;;;;;;;13.67;7.90;;;;;;;1.53;56.86;102910.06;5085297;28;20080;-84
2024/01/22 05:34:32;;;;;;;9.70;7.57;;;;;;;1.55;56.48;102904.78;5068775;28;20066;-82
2024/01/22 05:37:00;;;;;;;15.67;8.27;;;;;;;1.57;55.24;102898.63;5048960;28;20060;-80
2024/01/22 05:39:30;;;;;;;14.97;8.93;;;;;;;1.27;55.10;102824.91;5075741;28;20044;-83
2024/01/22 05:41:57;;;;;;;12.90;8.20;;;;;;;1.57;55.77;102879.44;5081642;28;20051;-81
2024/01/22 05:44:25;;;;;;;14.67;8.00;;;;;;;1.57;56.13;102866.34;5062095;28;20044;-82
2024/01/22 05:46:52;;;;;;;12.67;8.00;;;;;;;1.75;56.11;102900.13;5076170;28;20055;-82
2024/01/22 05:49:19;;;;;;;17.27;9.40;;;;;;;1.88;56.11;102896.41;5045522;28;20127;-81
2024/01/22 05:51:47;;;;;;;15.03;9.23;;;;;;;1.89;56.76;102907.75;5077691;28;20052;-82
2024/01/22 05:54:14;;;;;;;14.57;8.90;;;;;;;1.38;57.35;102822.13;5050400;28;20043;-82
2024/01/22 05:56:42;;;;;;;17.07;10.10;;;;;;;1.78;56.02;102881.75;5056265;28;20110;-83
2024/01/22 05:59:12;;;;;;;15.77;10.38;;;;;;;1.90;55.78;102883.31;5077190;28;20055;-81
2024/01/22 06:01:43;;;;;;;20.88;10.05;;;;;;;1.92;55.80;102889.38;5056880;28;20093;-84
2024/01/22 06:04:11;;;;;;;;;;;;;;;1.83;56.42;102893.00;5061539;28;20045;-84
2024/01/22 06:06:38;;;;;;;13.37;9.27;;;;;;;1.71;55.87;102867.00;5063911;28;19955;-82
2024/01/22 06:09:07;;;;;;;17.47;9.20;;;;;;;1.68;56.07;102846.13;5051043;28;20583;-82
2024/01/22 06:11:43;;;;;;;19.27;10.40;;;;;;;1.79;56.20;102870.34;5062114;28;20500;-82
2024/01/22 06:14:12;;;;;;;;;;;;;;;1.89;55.83;102894.66;5070842;28;20105;-82
2024/01/22 06:16:39;;;;;;;17.53;9.63;;;;;;;1.90;56.14;102878.91;5046463;28;19982;-81
2024/01/22 06:19:05;;;;;;;21.70;10.97;;;;;;;2.14;55.60;102879.41;5054387;28;20105;-81
2024/01/22 06:21:32;;;;;;;17.03;10.07;;;;;;;2.10;55.26;102864.63;5065753;28;20048;-81
2024/01/22 06:24:02;;;;;;;25.00;10.63;;;;;;;2.18;54.25;102857.47;5054551;28;20041;-82
2024/01/22 06:26:33;;;;;;;18.87;10.33;;;;;;;1.96;56.00;102840.41;5060828;28;20148;-80
2024/01/22 06:29:13;;;;;;;16.27;10.13;;;;;;;1.89;55.68;102856.25;5055331;28;20577;-83
2024/01/22 06:31:43;;;;;;;21.10;11.43;;;;;;;1.87;57.35;102858.03;5058374;28;20044;-81
2024/01/22 06:34:12;;;;;;;24.27;10.48;;;;;;;1.85;56.74;102856.31;5047280;28;20056;-81
2024/01/22 06:36:39;;;;;;;25.10;10.53;;;;;;;1.84;55.54;102870.28;5045872;28;20756;-83
2024/01/22 06:39:08;;;;;;;15.10;10.20;;;;;;;1.56;55.96;102830.59;5064973;28;20131;-83
2024/01/22 06:41:36;;;;;;;29.33;9.43;;;;;;;1.57;55.69;102833.19;5066530;28;20482;-79
2024/01/22 06:44:05;;;;;;;17.17;9.03;;;;;;;1.71;54.02;102862.63;5065450;28;20126;-81
2024/01/22 06:46:33;;;;;;;13.10;7.73;;;;;;;1.78;54.65;102879.13;5080637;28;20058;-83
2024/01/22 06:48:59;;;;;;;12.48;6.78;;;;;;;1.62;52.99;102846.19;5054615;28;20048;-83
2024/01/22 06:51:34;;;;;;;12.52;6.75;;;;;;;1.55;52.89;102834.09;5058119;28;20751;-82
2024/01/22 06:54:14;;;;;;;15.23;7.03;;;;;;;1.66;53.28;102853.13;5046699;28;20045;-82
2024/01/22 06:56:41;;;;;;;12.17;6.53;;;;;;;1.45;52.95;102826.38;5043783;28;20197;-83
2024/01/22 06:59:09;;;;;;;9.67;6.13;;;;;;;1.49;53.37;102835.91;5060769;28;20218;-82
2024/01/22 07:01:36;;;;;;;14.85;6.55;;;;;;;1.65;54.50;102867.09;5061286;28;20704;-83
2024/01/22 07:04:17;;;;;;;11.53;6.90;;;;;;;1.60;53.98;102863.69;5067280;28;20056;-81
2024/01/22 07:06:45;;;;;;;16.43;6.83;;;;;;;1.74;55.90;102874.81;5041677;28;20173;-82
2024/01/22 07:09:28;;;;;;;12.63;6.60;;;;;;;1.67;56.31;102871.41;5064205;28;20044;-82
2024/01/22 07:12:05;;;;;;;15.70;6.68;;;;;;;1.72;54.50;102858.25;5041954;28;20701;-82
2024/01/22 07:14:32;;;;;;;18.60;7.17;;;;;;;1.83;55.50;102882.53;5063784;28;20055;-81
2024/01/22 07:17:04;;;;;;;25.77;10.87;;;;;;;1.83;54.59;102855.47;5044190;28;20052;-83
2024/01/22 07:19:39;;;;;;;16.93;9.07;;;;;;;1.82;54.38;102859.84;5079692;28;20055;-80
2024/01/22 07:22:08;;;;;;;16.07;7.03;;;;;;;1.76;54.15;102848.59;5044039;28;20044;-83
2024/01/22 07:24:36;;;;;;;16.60;7.57;;;;;;;1.67;54.63;102840.00;5050342;28;20052;-81
2024/01/22 07:27:03;;;;;;;18.13;7.30;;;;;;;1.92;54.87;102878.91;5056097;28;20058;-82
2024/01/22 07:29:38;;;;;;;12.43;6.60;;;;;;;1.51;54.85;102809.72;5060970;28;20048;-83
2024/01/22 07:32:06;;;;;;;17.67;11.40;;;;;;;1.72;55.67;102847.78;5067991;28;20052;-82
2024/01/22 07:34:33;;;;;;;23.17;7.93;;;;;;;1.88;54.26;102874.59;5053974;28;20044;-83
2024/01/22 07:37:00;;;;;;;17.43;6.40;;;;;;;1.89;53.82;102863.22;5056221;28;20131;-82
2024/01/22 07:39:29;;;;;;;11.48;6.45;;;;;;;1.89;53.76;102853.63;5069035;28;20049;-83
2024/01/22 07:41:57;;;;;;;13.33;5.77;;;;;;;1.51;53.45;102774.84;5054708;28;20046;-82
2024/01/22 07:44:35;;;;;;;16.33;5.82;;;;;;;2.01;52.66;102849.06;5041530;28;20052;-83
2024/01/22 07:47:02;;;;;;;9.38;5.22;;;;;;;1.99;52.69;102850.84;5039226;28;20068;-83
2024/01/22 07:49:30;;;;;;;16.00;5.60;;;;;;;1.76;54.14;102806.72;5034212;28;20130;-83
2024/01/22 07:51:57;;;;;;;10.63;5.23;;;;;;;2.12;52.58;102852.38;5057433;28;20063;-83
2024/01/22 07:54:24;;;;;;;16.70;6.27;;;;;;;2.12;53.67;102847.13;5035651;28;20068;-81
2024/01/22 07:56:54;;;;;;;14.27;6.03;;;;;;;2.06;54.27;102832.38;5045043;28;20559;-83
2024/01/22 07:59:22;;;;;;;10.05;5.75;;;;;;;1.88;52.96;102791.63;5065836;28;20102;-82
2024/01/22 08:01:51;;;;;;;10.63;5.38;;;;;;;2.10;52.67;102827.94;5042452;28;20064;-82
2024/01/22 08:04:18;;;;;;;12.77;5.80;;;;;;;2.13;52.49;102822.63;5050175;28;20048;-82
2024/01/22 08:06:51;;;;;;;12.10;4.80;;;;;;;2.24;52.14;102836.41;5019853;28;20495;-81
2024/01/22 08:09:19;;;;;;;11.48;6.00;;;;;;;2.18;51.03;102814.69;5034339;28;20044;-82
2024/01/22 08:11:52;;;;;;;12.30;5.50;;;;;;;2.52;50.04;102869.97;5046438;28;20449;-81
2024/01/22 08:14:25;;;;;;;10.23;4.80;;;;;;;2.31;48.96;102817.06;5028601;28;20517;-82
2024/01/22 08:16:55;;;;;;;8.30;4.70;;;;;;;2.73;47.80;102850.34;5033619;28;20048;-83
2024/01/22 08:19:22;;;;;;;7.85;5.25;;;;;;;2.71;47.56;102842.50;5039064;28;20180;-81
2024/01/22 08:21:49;;;;;;;10.70;5.10;;;;;;;3.01;47.18;102861.16;5057699;28;20633;-82
2024/01/22 08:24:16;;;;;;;11.13;5.03;;;;;;;3.08;46.44;102861.84;5052725;28;20059;-82
2024/01/22 08:26:43;;;;;;;9.35;5.30;;;;;;;3.00;46.88;102836.63;5063221;28;20072;-81
2024/01/22 08:29:13;;;;;;;11.32;5.65;;;;;;;3.01;46.60;102824.41;5064467;28;20044;-81
2024/01/22 08:31:41;;;;;;;20.58;7.50;;;;;;;3.26;48.29;102852.72;5057365;28;20044;-82
2024/01/22 08:34:08;;;;;;;19.02;6.93;;;;;;;2.96;48.27;102789.50;5044337;28;20052;-83
2024/01/22 08:36:38;;;;;;;28.40;8.15;;;;;;;3.35;49.55;102855.13;5055296;28;20452;-82
2024/01/22 08:39:05;;;;;;;12.13;6.30;;;;;;;3.17;48.97;102825.78;5071285;28;20704;-83
2024/01/22 08:41:32;;;;;;;12.50;7.13;;;;;;;3.39;47.35;102854.16;5069672;28;20087;-83
2024/01/22 08:44:01;;;;;;;8.30;5.32;;;;;;;3.58;47.61;102863.34;5055209;28;20123;-82
2024/01/22 08:46:30;;;;;;;9.55;5.10;;;;;;;3.72;46.40;102856.91;5081267;28;20044;-81
2024/01/22 08:48:59;;;;;;;7.80;5.63;;;;;;;2.45;46.87;102614.94;5073969;28;20047;-82
2024/01/22 08:51:28;;;;;;;10.55;6.15;;;;;;;3.70;46.31;102820.16;5084332;28;20044;-82
2024/01/22 08:53:55;;;;;;;12.55;5.88;;;;;;;3.79;45.99;102813.84;5069863;28;20713;-79
2024/01/22 08:56:22;;;;;;;14.63;6.68;;;;;;;4.05;45.01;102842.94;5046581;28;20713;-80
2024/01/22 08:58:50;;;;;;;15.57;7.28;;;;;;;4.23;44.14;102851.25;5066419;28;20058;-81
2024/01/22 09:01:18;;;;;;;10.07;6.20;;;;;;;4.18;42.44;102832.09;5058304;28;20202;-82
2024/01/22 09:03:47;;;;;;;7.57;5.00;;;;;;;4.14;43.39;102825.19;5038150;28;20151;-82
2024/01/22 09:06:14;;;;;;;9.45;5.00;;;;;;;4.49;42.16;102856.66;5036702;28;20048;-82
2024/01/22 09:08:45;;;;;;;7.65;5.40;;;;;;;4.32;41.97;102823.81;5016860;28;20136;-82
2024/01/22 09:11:12;;;;;;;8.70;5.47;;;;;;;4.54;41.33;102845.13;5022246;28;20054;-82
2024/01/22 09:13:42;;;;;;;6.72;4.93;;;;;;;4.36;41.13;102822.84;5007508;28;20052;-82
2024/01/22 09:16:14;;;;;;;6.75;4.97;;;;;;;4.41;40.85;102840.22;5012742;28;20055;-81
2024/01/22 09:18:42;;;;;;;10.65;5.90;;;;;;;4.15;42.12;102790.09;5019137;28;20048;-82
2024/01/22 09:21:10;;;;;;;8.48;5.63;;;;;;;4.16;41.61;102786.59;5034475;28;20074;-82
2024/01/22 09:23:41;;;;;;;15.60;6.40;;;;;;;4.75;41.44;102857.69;5044580;28;20044;-81
2024/01/22 09:26:08;;;;;;;11.60;6.72;;;;;;;4.27;41.12;102789.75;5009922;28;20056;-82
2024/01/22 09:28:35;;;;;;;10.82;6.30;;;;;;;4.63;40.59;102842.25;5016268;28;20044;-79
2024/01/22 09:31:02;;;;;;;10.45;6.20;;;;;;;4.71;41.72;102858.72;5023915;28;20481;-81
2024/01/22 09:33:29;;;;;;;12.77;6.90;;;;;;;4.82;42.22;102871.56;5041368;28;20071;-81
2024/01/22 09:35:56;;;;;;;13.07;7.05;;;;;;;4.81;41.54;102860.16;5040565;28;20535;-81
2024/01/22 09:38:23;;;;;;;11.55;7.80;;;;;;;4.88;41.19;102852.97;5044510;28;20508;-82
2024/01/22 09:40:55;;;;;;;16.17;7.50;;;;;;;4.77;40.50;102842.72;5033918;28;20445;-81
2024/01/22 09:43:22;;;;;;;11.75;7.35;;;;;;;4.92;40.94;102850.16;5024020;28;20053;-80
2024/01/22 09:45:55;;;;;;;11.77;7.32;;;;;;;4.97;40.71;102857.06;5035681;28;20045;-81
2024/01/22 09:48:21;;;;;;;;;;;;;;;4.95;39.81;102849.22;5041054;28;20131;-80
2024/01/22 09:50:51;;;;;;;11.52;7.72;;;;;;;4.70;41.28;102814.88;5033175;28;19923;-81
2024/01/22 09:53:23;;;;;;;12.98;8.45;;;;;;;4.94;40.88;102844.88;5048268;28;20465;-81
2024/01/22 09:55:52;;;;;;;11.30;8.02;;;;;;;4.99;40.97;102842.09;5013686;28;20048;-81
2024/01/22 09:58:27;;;;;;;9.15;7.05;;;;;;;4.95;40.61;102819.41;5022560;28;20045;-81
2024/01/22 10:00:57;;;;;;;18.92;8.30;;;;;;;5.13;41.38;102834.66;5032825;28;20143;-81
2024/01/22 10:03:30;;;;;;;17.30;9.00;;;;;;;5.28;40.20;102844.72;5012889;28;20079;-82
2024/01/22 10:05:59;;;;;;;15.10;8.48;;;;;;;5.32;40.45;102830.53;5036070;28;20045;-81
2024/01/22 10:08:27;;;;;;;12.35;8.77;;;;;;;5.25;40.65;102817.63;5038203;28;20072;-82
2024/01/22 10:10:54;;;;;;;15.43;9.35;;;;;;;5.31;40.31;102823.53;5016015;28;20050;-81
2024/01/22 10:13:21;;;;;;;18.60;10.52;;;;;;;5.21;40.36;102769.44;5019484;28;20413;-83
2024/01/22 10:15:48;;;;;;;16.92;10.45;;;;;;;5.37;39.85;102795.31;5027283;28;20036;-81
2024/01/22 10:18:16;;;;;;;17.38;10.60;;;;;;;5.50;40.25;102823.81;5039438;28;20048;-81
2024/01/22 10:20:45;;;;;;;16.98;10.98;;;;;;;5.39;40.41;102799.63;5041834;28;20079;-81
2024/01/22 10:23:13;;;;;;;19.08;12.30;;;;;;;5.22;40.90;102757.13;5023435;28;20084;-80
2024/01/22 10:25:45;;;;;;;22.85;12.35;;;;;;;5.46;41.08;102805.53;5050367;28;20040;-82
2024/01/22 10:28:19;;;;;;;21.40;13.18;;;;;;;5.55;41.24;102805.22;5062084;28;20329;-81
2024/01/22 10:31:02;;;;;;;23.88;14.85;;;;;;;5.31;41.80;102770.84;5030927;28;20410;-81
2024/01/22 10:33:33;;;;;;;;;;;;;;;5.10;42.48;102745.25;5036711;28;20063;-81
2024/01/22 10:36:32;;;;;;;26.33;14.88;;;;;;;5.64;42.02;102806.72;5047494;28;19924;-80
2024/01/22 10:39:04;;;;;;;28.10;15.13;;;;;;;5.27;42.67;102735.03;5016194;28;20319;-81
2024/01/22 10:41:32;;;;;;;28.05;14.77;;;;;;;5.71;43.05;102803.81;5009461;28;20245;-81
2024/01/22 10:43:59;;;;;;;27.58;16.58;;;;;;;5.70;43.09;102796.81;5014224;28;20052;-80
2024/01/22 10:46:28;;;;;;;29.27;18.60;;;;;;;5.81;42.78;102785.06;5035124;28;20036;-81
2024/01/22 10:48:58;;;;;;;25.75;16.40;;;;;;;5.73;43.27;102788.81;5017680;28;20080;-81
2024/01/22 10:51:25;;;;;;;22.48;14.23;;;;;;;5.61;43.59;102768.16;5036056;28;20131;-81
2024/01/22 10:53:55;;;;;;;28.35;16.05;;;;;;;5.76;43.19;102783.44;5036510;28;20058;-82
2024/01/22 10:56:29;;;;;;;26.95;14.93;;;;;;;5.47;42.88;102726.44;5037117;28;20060;-81
2024/01/22 10:59:07;;;;;;;23.67;14.50;;;;;;;5.73;43.54;102767.75;5049468;28;20131;-81
2024/01/22 11:01:35;;;;;;;25.48;15.27;;;;;;;5.87;43.76;102782.22;5043147;28;20417;-81
2024/01/22 11:04:08;;;;;;;22.50;15.27;;;;;;;5.97;43.82;102773.09;5037904;28;20048;-82
2024/01/22 11:06:38;;;;;;;20.25;13.48;;;;;;;6.06;42.95;102762.22;5033798;28;20493;-82
2024/01/22 11:09:09;;;;;;;24.95;13.88;;;;;;;6.04;42.75;102748.22;5035152;28;20051;-81
2024/01/22 11:11:40;;;;;;;22.33;14.45;;;;;;;6.27;42.36;102791.41;5041403;28;20047;-82
2024/01/22 11:14:07;;;;;;;23.70;14.25;;;;;;;6.25;42.21;102772.13;5032886;28;20066;-81
2024/01/22 11:16:34;;;;;;;23.38;13.07;;;;;;;6.27;41.85;102754.47;5008570;28;20048;-81
2024/01/22 11:19:04;;;;;;;19.73;13.05;;;;;;;6.39;42.53;102777.78;4992715;28;20566;-81
2024/01/22 11:21:38;;;;;;;22.05;15.10;;;;;;;6.37;42.76;102769.91;5006656;28;20055;-81
2024/01/22 11:24:14;;;;;;;23.98;13.02;;;;;;;6.34;43.15;102774.44;5014104;28;20055;-81
2024/01/22 11:27:05;;;;;;;23.33;13.45;;;;;;;6.34;43.53;102766.53;5029410;28;20474;-81
2024/01/22 11:29:43;;;;;;;23.98;14.77;;;;;;;6.32;44.16;102752.53;5006087;28;20488;-81
2024/01/22 11:32:43;;;;;;;28.50;15.82;;;;;;;6.39;43.04;102761.94;5027303;28;20055;-81
2024/01/22 11:35:34;;;;;;;24.10;15.15;;;;;;;6.35;44.29;102744.50;5036819;28;20851;-81
2024/01/22 11:38:05;;;;;;;26.73;16.60;;;;;;;6.31;43.83;102727.03;5058073;28;20404;-81